Latest Coastal Weather Observations for Cape Otway

IDV60701

Issued at 10:51 pm EST Tuesday 21 May 2024 (issued every 10 minutes, with the page automatically refreshed every 10 minutes)

About coastal observations | Map of coastal stations | Coastal observations for VIC | Marine services | Other Formats
Station Details ID: 090015 Name: CAPE OTWAY LIGHTHOUSE Lat: -38.86 Lon: 143.51 Height: 80.0 m
Data from the previous 72 hours. | See also: Recent months at Cape Otway
Date/Time
EST
Wind Sea
Height
m
Swell Vis
km
Cloud Weather Temp
°C
Press
MSL
hPa
Rain since
9am
mm
Dir  Spd
kts
Gust
kts
Height
m
Period
s
Dir
21/10:30pm WSW 7 11 - - - - - - - 13.3 1029.9 0.0
21/10:00pm WSW 5 8 - - - - - - - 13.0 1030.2 0.0
21/09:30pm SSW 5 9 - - - - - - - 13.1 1030.3 0.0
21/09:00pm W 5 8 - - - - - - - 12.8 1030.2 0.0
21/08:30pm WSW 5 8 - - - - - - - 13.0 1030.3 0.0
21/08:00pm WSW 5 8 - - - - - - - 12.8 1030.3 0.0
21/07:30pm WSW 5 8 - - - - - - - 12.8 1030.2 0.0
21/07:00pm WSW 4 6 - - - - - - - 12.9 1030.2 0.0
21/06:30pm WSW 5 7 - - - - - - - 12.7 1030.1 0.0
21/06:00pm SSW 3 6 - - - - - - - 12.8 1030.0 0.0
21/05:30pm SW 3 6 - - - - - - - 12.7 1029.9 0.0
21/05:00pm SE 3 4 - - - - - - - 12.6 1029.8 0.0
21/04:30pm SSE 5 9 - - - - - - - 12.7 1029.9 0.0
21/04:00pm SE 7 9 - - - - - - - 13.1 1029.8 0.0
21/03:30pm WSW 5 7 - - - - - - - 13.3 1029.9 0.0
21/03:00pm SW 5 9 - - - - - - - 13.5 1029.9 0.0
21/02:30pm SW 8 12 - - - - - - - 12.9 1030.0 0.0
21/02:00pm WSW 5 7 - - - - - - - 13.2 1030.2 0.0
21/01:30pm SW 4 6 - - - - - - - 13.3 1030.4 0.0
21/01:00pm SW 5 8 - - - - - - - 13.1 1030.7 0.0
21/12:30pm SW 8 12 - - - - - - - 12.8 1031.0 0.0
21/12:00pm WSW 6 9 - - - - - - - 12.8 1031.3 0.0
21/11:30am SW 8 12 - - - - - - - 12.8 1031.5 0.0
21/11:00am W 6 9 - - - - - - - 13.0 1031.6 0.0
21/10:30am SSE 6 10 - - - - - - - 13.3 1031.5 0.0
21/10:00am WSW 5 8 - - - - - - - 12.3 1031.4 0.0
21/09:30am WSW 5 8 - - - - - - - 12.0 1031.4 0.0
21/09:00am SW 6 9 - - - - - - - 11.8 1031.3 0.8
21/08:30am WSW 5 9 - - - - - - - 12.2 1031.0 0.8
21/08:00am W 5 10 - - - - - - - 12.0 1030.8 0.8
21/07:30am SSW 6 11 - - - - - - - 11.9 1030.6 0.8
21/07:00am WSW 5 8 - - - - - - - 11.6 1030.4 0.8
21/06:30am WSW 5 8 - - - - - - - 11.8 1030.2 0.8
21/06:00am SW 5 8 - - - - - - - 11.6 1030.2 0.8
21/05:30am SSE 6 9 - - - - - - - 11.2 1030.1 0.8
21/05:00am SW 5 11 - - - - - - - 11.7 1030.0 0.8
21/04:30am WSW 9 14 - - - - - - - 11.3 1030.0 0.8
21/04:00am SW 5 8 - - - - - - - 11.6 1030.2 0.8
21/03:30am WSW 5 11 - - - - - - - 11.8 1030.1 0.8
21/03:00am WSW 5 10 - - - - - - - 11.6 1030.5 0.8
21/02:30am WSW 7 11 - - - - - - - 11.7 1030.6 0.8
21/02:00am W 5 10 - - - - - - - 11.9 1030.4 0.8
21/01:30am SW 9 13 - - - - - - - 11.9 1030.2 0.8
21/01:00am SW 9 18 - - - - - - - 11.5 1030.4 0.8
21/12:30am WSW 5 9 - - - - - - - 11.6 1030.6 0.8
21/12:00am WSW 8 11 - - - - - - - 11.5 1030.7 0.8
 
Date/Time
EST
Wind Sea
Height
m
Swell Vis
km
Cloud Weather Temp
°C
Press
MSL
hPa
Rain since
9am
mm
Dir  Spd
kts
Gust
kts
Height
m
Period
s
Dir
20/11:30pm SW 7 11 - - - - - - - 11.4 1030.6 0.8
20/11:00pm SW 8 12 - - - - - - - 11.3 1030.7 0.8
20/10:30pm WSW 8 12 - - - - - - - 10.9 1030.7 0.8
20/10:00pm SW 4 7 - - - - - - - 10.6 1030.9 0.6
20/09:30pm SE 5 7 - - - - - - - 11.0 1030.9 0.4
20/09:00pm SW 4 8 - - - - - - Recent precip. 10.9 1030.5 0.4
20/08:30pm WSW 8 12 - - - - - - - 11.3 1030.3 0.2
20/08:00pm SW 8 11 - - - - - - - 11.7 1030.2 0.2
20/07:30pm SW 10 14 - - - - - - - 11.0 1030.3 0.2
20/07:00pm SW 7 13 - - - - - - - 11.9 1030.0 0.2
20/06:30pm SW 11 19 - - - - - - - 11.9 1029.7 0.2
20/06:00pm SW 8 13 - - - - - - - 12.0 1029.3 0.2
20/05:30pm SW 8 11 - - - - - - - 12.4 1028.9 0.2
20/05:00pm SW 10 15 - - - - - - - 12.4 1029.0 0.2
20/04:30pm SW 9 14 - - - - - - - 12.6 1028.8 0.0
20/04:00pm SW 6 10 - - - - - - - 12.6 1028.6 0.0
20/03:30pm WSW 7 10 - - - - - - - 12.7 1028.5 0.0
20/03:00pm SW 5 11 - - - - - - - 12.5 1028.4 0.0
20/02:30pm WSW 6 9 - - - - - - - 12.4 1028.2 0.0
20/02:00pm SW 7 10 - - - - - - - 12.9 1028.3 0.0
20/01:30pm SW 9 12 - - - - - - - 12.8 1028.4 0.0
20/01:00pm SW 7 12 - - - - - - - 13.1 1028.4 0.0
20/12:30pm WSW 7 12 - - - - - - - 13.3 1028.7 0.0
20/12:00pm SW 8 13 - - - - - - - 13.2 1028.9 0.0
20/11:30am SW 7 10 - - - - - - - 14.0 1029.0 0.0
20/11:00am SW 10 15 - - - - - - - 13.2 1029.0 0.0
20/10:30am SW 8 11 - - - - - - - 13.0 1028.8 0.0
20/10:00am SW 8 12 - - - - - - - 12.8 1028.5 0.0
20/09:30am WSW 7 12 - - - - - - - 12.7 1028.4 0.0
20/09:00am WSW 7 12 - - - - - - - 12.8 1028.1 2.0
20/08:30am SW 4 8 - - - - - - - 12.3 1027.7 2.0
20/08:00am SW 9 15 - - - - - - - 12.0 1027.5 2.0
20/07:30am SW 7 11 - - - - - - - 11.6 1027.3 2.0
20/07:00am SW 8 10 - - - - - - - 11.7 1026.9 2.0
20/06:30am WSW 7 11 - - - - - - - 11.7 1026.5 2.0
20/06:00am WSW 6 10 - - - - - - - 11.4 1026.3 2.0
20/05:30am WSW 8 11 - - - - - - - 11.5 1026.0 2.0
20/05:00am SW 9 15 - - - - - - - 11.6 1025.7 2.0
20/04:30am SW 12 16 - - - - - - - 11.9 1025.4 2.0
20/04:00am SW 11 17 - - - - - - - 11.6 1025.4 2.0
20/03:30am SW 10 17 - - - - - - - 12.2 1025.1 2.0
20/03:00am SW 9 13 - - - - - - Recent precip. 11.9 1025.0 2.0
20/02:30am SW 9 14 - - - - - - - 11.7 1025.0 2.0
20/02:00am SW 13 20 - - - - - - - 11.8 1024.9 1.8
20/01:30am SW 13 18 - - - - - - - 12.1 1024.6 1.8
20/01:00am SW 14 20 - - - - - - - 12.4 1024.4 1.8
20/12:30am SW 14 22 - - - - - - - 12.0 1024.6 1.6
20/12:00am SW 15 23 - - - - - - - 12.2 1024.5 1.6
 
Date/Time
EST
Wind Sea
Height
m
Swell Vis
km
Cloud Weather Temp
°C
Press
MSL
hPa
Rain since
9am
mm
Dir  Spd
kts
Gust
kts
Height
m
Period
s
Dir
19/11:30pm SW 13 19 - - - - - - - 12.7 1024.5 1.6
19/11:00pm SW 15 21 - - - - - - - 12.4 1024.6 1.6
19/10:30pm SW 16 22 - - - - - - - 12.2 1024.6 1.6
19/10:00pm SW 14 21 - - - - - - - 12.4 1024.5 1.6
19/09:30pm WSW 15 20 - - - - - - - 12.7 1024.6 1.6
19/09:00pm WSW 17 22 - - - - - - - 12.3 1024.6 1.6
19/08:30pm SW 14 19 - - - - - - - 12.1 1024.4 1.6
19/08:00pm WSW 17 24 - - - - - - - 12.1 1024.2 1.6
19/07:30pm WSW 18 25 - - - - - - - 13.2 1024.2 1.6
19/07:00pm WSW 14 22 - - - - - - - 12.8 1024.0 1.6
19/06:30pm WSW 16 23 - - - - - - - 13.2 1023.6 1.6
19/06:00pm WSW 14 23 - - - - - - - 13.0 1023.3 1.6
19/05:30pm SW 19 26 - - - - - - - 12.7 1023.0 1.6
19/05:06pm WSW 17 28 - - - - - - - 12.6 1022.7 1.6
19/05:00pm WSW 20 26 - - - - - - - 12.5 1022.9 1.6
19/04:30pm WSW 20 26 - - - - - - - 13.1 1022.5 1.6
19/04:00pm WSW 19 25 - - - - - - - 12.9 1022.4 1.6
19/03:43pm WSW 15 29 - - - - - - - 13.2 1022.3 1.6
19/03:30pm W 13 19 - - - - - - - 13.0 1022.4 1.6
19/03:00pm SW 19 24 - - - - - - - 13.0 1022.4 1.6
19/02:30pm WSW 22 28 - - - - - - - 13.3 1022.3 1.6
19/02:08pm WSW 17 27 - - - - - - - 14.3 1022.3 1.6
19/02:00pm WSW 14 22 - - - - - - - 14.7 1022.3 1.6
19/01:30pm WSW 15 25 - - - - - - - 13.0 1022.6 1.6
19/01:12pm WSW 18 29 - - - - - - - 13.5 1022.5 1.6
19/01:00pm WSW 15 21 - - - - - - - 13.7 1022.5 1.6
19/12:30pm WSW 18 24 - - - - - - - 13.2 1022.9 1.6
19/12:00pm WSW 19 27 - - - - - - - 13.5 1023.2 1.4
19/11:30am SW 21 26 - - - - - - - 13.5 1023.2 1.4
19/11:19am WSW 19 26 - - - - - - - 13.9 1023.2 1.4
19/11:00am W 17 24 - - - - - - - 13.7 1023.2 1.4
19/10:30am WSW 20 31 - - - - - - - 12.9 1023.2 1.4
19/10:07am W 18 29 - - - - - - - 13.4 1023.3 1.0
19/10:00am W 17 26 - - - - - - - 13.4 1023.2 1.0
19/09:40am W 20 32 - - - - - - - 13.4 1023.2 0.4
19/09:30am W 20 27 - - - - - - - 13.5 1023.2 0.0
19/09:00am W 19 26 - - - - - - Recent precip. 13.1 1023.2 2.6
19/08:30am W 21 31 - - - - - - - 13.1 1023.3 2.2
19/08:25am W 21 31 - - - - - - - 13.0 1023.2 2.0
19/08:00am WNW 20 27 - - - - - - - 12.7 1023.3 1.8
19/07:30am WNW 19 29 - - - - - - - 12.6 1023.1 1.8
19/07:27am WNW 19 29 - - - - - - - 12.9 1023.1 1.8
19/07:00am W 19 28 - - - - - - - 12.6 1023.2 1.4
19/06:39am WNW 19 30 - - - - - - - 12.4 1023.0 0.6
19/06:30am WNW 20 29 - - - - - - - 12.4 1023.1 0.6
19/06:22am WNW 18 29 - - - - - - - 12.5 1023.2 0.4
19/06:00am WNW 20 28 - - - - - - - 12.4 1023.4 0.2
19/05:30am WNW 19 25 - - - - - - - 12.7 1023.5 0.2
19/05:00am W 20 27 - - - - - - - 13.2 1023.6 0.2
19/04:30am W 20 27 - - - - - - - 13.4 1023.6 0.2
19/04:00am WNW 19 27 - - - - - - - 12.6 1023.6 0.2
19/03:30am WNW 18 25 - - - - - - - 12.1 1024.3 0.2
19/03:07am WNW 18 28 - - - - - - - 12.2 1024.5 0.2
19/03:00am WNW 17 23 - - - - - - Recent precip. 12.0 1024.7 0.2
19/02:30am W 19 29 - - - - - - - 11.3 1025.0 0.2
19/02:19am W 18 28 - - - - - - - 11.9 1025.0 0.0
19/02:00am WNW 17 23 - - - - - - - 12.0 1025.2 0.0
19/01:30am WNW 17 25 - - - - - - - 12.1 1025.4 0.0
19/01:00am WNW 16 22 - - - - - - - 11.6 1026.0 0.0
19/12:41am WNW 15 26 - - - - - - - 12.2 1026.4 0.0
19/12:30am W 15 21 - - - - - - - 12.2 1026.7 0.0
19/12:00am W 15 21 - - - - - - - 12.2 1027.1 0.0
 
Date/Time
EST
Wind Sea
Height
m
Swell Vis
km
Cloud Weather Temp
°C
Press
MSL
hPa
Rain since
9am
mm
Dir  Spd
kts
Gust
kts
Height
m
Period
s
Dir
18/11:30pm WNW 17 27 - - - - - - - 11.8 1027.5 0.0
18/11:25pm W 17 27 - - - - - - - 11.8 1027.5 0.0
18/11:00pm WNW 16 22 - - - - - - - 11.9 1027.8 0.0

Other formats

Comma delimited format used in spreadsheet applications
http://www.bom.gov.au/fwo/IDV60701/IDV60701.94842.axf

JavaScript Object Notation format (JSON) in row-major order
http://www.bom.gov.au/fwo/IDV60701/IDV60701.94842.json

Data quality

Most of these data are generated automatically and are frequently updated. Quality checks on data are not normally performed. It is possible for incorrect values to appear. Refer to information at About Latest Weather Observations and please check the disclaimer before using these data.